Stanley, China
Current Conditions -  °F | °C
As of 9:30 PM on Thursday 18 Dec 2014 (Local Time) from VHHH Reporting Station
Few Clouds Few Clouds  
Wind Chill: 59°   Ceiling: Unl
Heat Index: 59°   Visibility: 6mi
Dew Point: 37°   Wind: 9mph
Humidity: 45%   Direction: 50°NE
Pressure: 30.3"   Gusts: NA
Location:  22.21°N, 114.22°E
Report Text: VHHH 181330Z 05008KT 9999 FEW035 15/03 Q1026 NOSIG
Loading
Personal Weather Stations






























Interactive Weather Map New forecast layout! Learn more

10-Day Weather Forecast

Advertisements
Track Severe Weather on mobile